• Join FlightAware (Why Join?)
  • Login
  • US Flag 
11:05PM EDT


 

Airport Tracker/Info


-or-


 

Live Flight TrackerFlight Track Log ✈ N9294N ✈ 30-Jul-2013 ✈ KFTY - KMBO

Flight Track Log - Related Links

Times and Time Zones

All times are in EDT time to prevent confusion due to time zone crossing. See the N9294N flight status page for this flight to view local times or setup timezone preferences in your user account.

Time Position Orientation Groundspeed Altitude Reporting Facility
EDT Latitude Longitude Course Direction KTS MPH feet Rate Location/Type
01:10PM 33.7667 -84.5667 263° West 110 127 1,900  Level Atlanta TRACON
01:11PM 33.7667 -84.6167 270° West 114 131 2,600 600 Climbing Atlanta TRACON
01:12PM 33.7500 -84.6500 239° Southwest 117 135 3,100 240 Climbing Atlanta TRACON
01:13PM 33.7500 -84.6833 270° West 145 167 3,100 300 Level Atlanta TRACON
01:14PM 33.7333 -84.7333 248° West 124 143 3,800 480 Climbing Atlanta TRACON
01:15PM 33.7333 -84.7833 270° West 136 157 4,100 120 Climbing Atlanta TRACON
01:16PM 33.7474 -84.8099 263° West  Level FlightAware Approximate
01:16PM 33.7333 -84.8333 270° West 154 177 4,100  Level Atlanta TRACON
01:17PM 33.7333 -84.8833 270° West 156 180 4,400 360 Climbing Atlanta TRACON
01:19PM 33.7325 -84.9506 269° West 147 169 5,100 420 Climbing Atlanta Center
01:20PM 33.7300 -84.9906 266° West 141 162 5,500 420 Climbing Atlanta Center
01:21PM 33.7275 -85.0328 266° West 135 155 6,000 300 Climbing Atlanta Center
01:22PM 33.7231 -85.0778 263° West 135 155 6,100  Climbing Atlanta Center
01:23PM 33.7144 -85.1253 258° West 141 162 6,100  Level Atlanta Center
01:24PM 33.7097 -85.1725 263° West 147 169 6,100  Level Atlanta Center
01:25PM 33.7008 -85.2200 257° West 147 169 6,100  Level Atlanta Center
01:26PM 33.6942 -85.2697 261° West 147 169 6,100 -60 Level Atlanta Center
01:27PM 33.6875 -85.3194 261° West 147 169 6,000  Descending Atlanta Center
01:28PM 33.6806 -85.3669 260° West 142 163 6,100  Climbing Atlanta Center
01:29PM 33.6717 -85.4167 258° West 142 163 6,100  Level Atlanta Center
01:30PM 33.6650 -85.4614 260° West 142 163 6,100  Level Atlanta Center
01:31PM 33.6603 -85.5114 264° West 142 163 6,100  Level Atlanta Center
01:32PM 33.6533 -85.5586 260° West 142 163 6,100  Level Atlanta Center
01:33PM 33.6444 -85.6033 257° West 142 163 6,100  Level Atlanta Center
01:34PM 33.6375 -85.6531 260° West 147 169 6,100  Level Atlanta Center
01:35PM 33.6328 -85.7031 264° West 147 169 6,100  Level Atlanta Center
01:36PM 33.6239 -85.7453 256° West 147 169 6,100  Level Atlanta Center
01:37PM 33.6169 -85.7950 260° West 147 169 6,100  Level Atlanta Center
01:38PM 33.6056 -85.8472 255° West 147 169 6,100  Level Atlanta Center
01:39PM 33.5986 -85.8944 260° West 147 169 6,100  Level Atlanta Center
01:40PM 33.5917 -85.9417 260° West 147 169 6,100  Level Atlanta Center
01:41PM 33.5847 -85.9914 260° West 147 169 6,200  Climbing Atlanta Center
01:42PM 33.5756 -86.0358 256° West 142 163 6,100 -60 Descending Atlanta Center
01:43PM 33.5644 -86.0806 253° West 142 163 6,100  Level Atlanta Center
01:44PM 33.5511 -86.1300 252° West 142 163 6,100  Level Atlanta Center
01:45PM 33.5400 -86.1747 253° West 149 171 6,100  Level Atlanta Center
01:46PM 33.5267 -86.2217 251° West 149 171 6,100  Level Atlanta Center
01:47PM 33.5153 -86.2664 253° West 149 171 6,100  Level Atlanta Center
01:48PM 33.4950 -86.3431 252° West 147 169 6,100  Level Atlanta Center
01:49PM 33.4839 -86.3800 250° West 147 169 6,100  Level Atlanta Center
01:50PM 33.4747 -86.4222 255° West 145 167 6,100  Level Atlanta Center
01:51PM 33.4614 -86.4692 251° West 146 168 6,100  Level Atlanta Center
01:52PM 33.4503 -86.5086 251° West 145 167 6,100  Level Atlanta Center
01:53PM 33.4389 -86.5556 254° West 145 167 6,100  Level Atlanta Center
01:54PM 33.4275 -86.6000 253° West 145 167 6,100  Level Atlanta Center
01:55PM 33.4139 -86.6494 252° West 145 167 6,100  Level Atlanta Center
01:56PM 33.4025 -86.6939 253° West 143 165 6,100  Level Atlanta Center
01:57PM 33.3889 -86.7383 250° West 143 165 6,100  Level Atlanta Center
01:58PM 33.3775 -86.7803 252° West 143 165 6,100  Level Atlanta Center
01:59PM 33.3617 -86.8394 252° West 143 165 6,100 -60 Level Atlanta Center
02:00PM 33.3525 -86.8814 255° West 143 165 6,000  Descending Atlanta Center
02:01PM 33.3367 -86.9331 250° West 143 165 6,100  Climbing Atlanta Center
02:02PM 33.3250 -86.9775 253° West 142 163 6,100  Level Atlanta Center
02:03PM 33.3136 -87.0242 254° West 144 166 6,100  Level Atlanta Center
02:04PM 33.3000 -87.0683 250° West 144 166 6,100  Level Atlanta Center
02:05PM 33.2861 -87.1178 251° West 146 168 6,100  Level Atlanta Center
02:06PM 33.2767 -87.1644 256° West 146 168 6,100  Level Atlanta Center
02:07PM 33.2608 -87.2136 249° West 145 167 6,100  Level Atlanta Center
02:08PM 33.2511 -87.2606 256° West 141 162 6,200  Climbing Atlanta Center
02:10PM 33.2331 -87.3119 247° West 142 163 6,100 -120 Descending Atlanta Center
02:11PM 33.2214 -87.3564 253° West 147 169 6,000  Descending Atlanta Center
02:12PM 33.2097 -87.4056 254° West 147 169 6,100  Climbing Atlanta Center
02:13PM 33.1981 -87.4497 252° West 147 169 6,000  Descending Atlanta Center
02:14PM 33.1864 -87.4964 253° West 147 169 6,100  Climbing Atlanta Center
02:15PM 33.1767 -87.5456 257° West 147 169 6,000 -60 Descending Atlanta Center
02:16PM 33.1608 -87.5897 247° West 147 169 6,000  Level Atlanta Center
02:17PM 33.1469 -87.6314 248° West 147 169 6,000  Level Atlanta Center
02:18PM 33.1311 -87.6803 249° West 147 169 6,000  Level Atlanta Center
02:19PM 33.1214 -87.7244 255° West 147 169 6,000  Level Atlanta Center
02:20PM 33.1136 -87.7714 259° West 152 175 6,000  Level Atlanta Center
02:21PM 33.1097 -87.8350 266° West 141 162 6,100 -180 Climbing Memphis Center
02:23PM 33.0797 -87.9013 242° Southwest  Level FlightAware Approximate
02:30PM 32.9784 -88.2047 252° West  Level FlightAware Approximate
02:31PM 32.9664 -88.2491 252° West  Level FlightAware Approximate
02:32PM 32.9544 -88.2935 252° West  Level FlightAware Approximate
02:33PM 32.9424 -88.3379 252° West  Level FlightAware Approximate
02:34PM 32.9304 -88.3823 252° West  Level FlightAware Approximate
02:35PM 32.9183 -88.4267 252° West  Level FlightAware Approximate
02:36PM 32.9062 -88.4712 252° West  Level FlightAware Approximate
02:37PM 32.8941 -88.5156 252° West  Level FlightAware Approximate
02:38PM 32.8820 -88.5601 252° West  Level FlightAware Approximate
02:39PM 32.8699 -88.6045 252° West  Level FlightAware Approximate
02:40PM 32.8578 -88.6489 252° West  Level FlightAware Approximate
02:41PM 32.8456 -88.6933 252° West  Level FlightAware Approximate
02:41PM 32.8394 -88.7994 252° West 154 177 3,000  Level Memphis Center
02:42PM 32.8334 -88.7377 252° West  Level FlightAware Approximate
02:42PM 32.8275 -88.8467 253° West 149 171 3,000  Level Memphis Center
02:43PM 32.8212 -88.7821 252° West  Level FlightAware Approximate
02:43PM 32.8114 -88.8914 247° West 156 180 3,000  Level Memphis Center
02:44PM 32.8090 -88.8264 252° West  Level FlightAware Approximate
02:44PM 32.7975 -88.9386 251° West 156 180 3,100  Level Memphis Center
02:45PM 32.7968 -88.8708 252° West  Level FlightAware Approximate
02:45PM 32.7833 -88.9858 250° West 151 174 3,000  Level Memphis Center
02:46PM 32.7692 -89.0331 250° West 151 174 2,900  Descending Memphis Center
02:47PM 32.7572 -89.0778 252° West 151 174 3,000 60 Climbing Memphis Center
02:48PM 32.7431 -89.1222 249° West 151 174 3,100  Climbing Memphis Center
02:49PM 32.7289 -89.1694 250° West 151 174 3,000 -60 Descending Memphis Center
02:50PM 32.7167 -89.2142 252° West 151 174 3,000  Level Memphis Center
02:51PM 32.7006 -89.2611 248° West 151 174 3,000  Level Memphis Center
02:52PM 32.6861 -89.3058 249° West 151 174 3,000  Level Memphis Center
02:53PM 32.6719 -89.3503 249° West 151 174 3,000  Level Memphis Center
02:54PM 32.6597 -89.3975 253° West 151 174 3,000  Level Memphis Center
02:55PM 32.6436 -89.4494 250° West 151 174 3,000  Level Memphis Center
02:56PM 32.6292 -89.4914 248° West 151 174 3,100  Climbing Memphis Center
02:57PM 32.6169 -89.5383 253° West 151 174 3,000  Descending Memphis Center
02:58PM 32.6006 -89.5831 247° West 151 174 3,100  Climbing Memphis Center
02:59PM 32.5861 -89.6275 249° West 151 174 3,100 -60 Level Memphis Center
03:00PM 32.5739 -89.6769 254° West 151 174 3,000  Descending Memphis Center
03:01PM 32.5597 -89.7214 249° West 151 174 3,100  Climbing Memphis Center
03:02PM 32.5453 -89.7683 250° West 151 174 3,000 -300 Descending Memphis Center
03:03PM 32.5289 -89.8153 248° West 151 174 2,600 -420 Descending Memphis Center
03:04PM 32.5144 -89.8669 252° West 151 174 2,200 -240 Descending Memphis Center
03:05PM 32.5000 -89.9114 249° West 151 174 2,200 360 Level Memphis Center
03:06PM 32.4856 -89.9583 250° West 151 174 3,000 360 Climbing Memphis Center
03:07PM 32.4689 -90.0003 245° Southwest 151 174 3,000  Level Memphis Center
03:08PM 32.4544 -90.0447 249° West 151 174 3,000  Level Memphis Center
03:09PM 32.4503 -90.0519 236° Southwest 151 174 3,000  Level Memphis Center
03:11PM 32.4503 -90.0519 239° Southwest 151 174 3,000  Level Memphis Center